< Cyclone 202237 2023 Season
Cyclone 202301 (noname)
General InformationDetailed Track InformationTrack Information on Google MapsList of All Images || ResourceGoogle EarthGE AnimationAtom FeedGeoJSON
Detalied Best Track Wind (Time Zone = UTC)
Year Month Day Hour Lat. Long. Wind (kt) Gust (kt) Direc. of Major Storm Axis Radius of Major Storm Axis (nm) Radius of Minor Storm Axis (nm) Direc. of Major Gale Axis Radius of Major Gale Axis (nm) Radius of Minor Gale Axis (nm) Image
2022 7 27 00 -7.4 92.0 15 45 symmetric - - symmetric - - Image
2022 7 27 06 -8.0 92.2 15 45 symmetric - - symmetric - - Image
2022 7 27 12 -8.5 92.5 20 45 symmetric - - symmetric - - Image
2022 7 27 18 -8.7 93.1 25 45 symmetric - - symmetric - - Image
2022 7 28 00 -9.1 93.8 25 45 symmetric - - symmetric - - Image
2022 7 28 06 -9.5 93.9 25 45 symmetric - - symmetric - - Image
2022 7 28 12 -10.1 94.4 35 50 symmetric - - symmetric - - Image
2022 7 28 18 -10.3 94.6 35 50 symmetric - - symmetric - - Image
2022 7 29 00 -10.9 94.9 40 55 symmetric - - symmetric - - Image
2022 7 29 06 -11.6 94.7 45 65 symmetric - - symmetric - - Image
2022 7 29 12 -12.1 94.5 45 65 symmetric - - symmetric - - Image
2022 7 29 18 -12.6 94.2 40 55 symmetric - - symmetric - - Image
2022 7 30 00 -13.2 93.8 40 55 symmetric - - symmetric - - Image
2022 7 30 06 -13.5 93.3 40 55 symmetric - - symmetric - - Image
2022 7 30 12 -13.9 92.9 35 50 symmetric - - symmetric - - Image
2022 7 30 18 -13.9 92.6 35 50 symmetric - - symmetric - - Image
2022 7 31 00 -13.8 92.3 35 50 symmetric - - symmetric - - Image
2022 7 31 06 -13.7 91.9 35 50 symmetric - - symmetric - - Image
2022 7 31 12 -13.7 91.6 35 50 symmetric - - symmetric - - Image
2022 7 31 18 -13.4 91.2 35 50 symmetric - - symmetric - - Image
2022 8 1 00 -13.1 90.5 35 50 symmetric - - symmetric - - Image
2022 8 1 06 -13.0 89.8 35 50 symmetric - - symmetric - - Image
< Cyclone 202237 2023 Season

Help